Time;durP1;ratioP1;P1;durP2;ratioP2;P2;SDS_P1;SDS_P2;PMS_P1;PMS_P2;Temp;Humidity;BMP_temperature;BMP_pressure;BME280_temperature;BME280_humidity;BME280_pressure;Samples;Min_cycle;Max_cycle;Signal;HPM_P1;HPM_P2
2023/09/28 00:01:55;;;;;;;19.85;14.07;;;;;;;;;;5069891;28;20278;-38
2023/09/28 00:04:20;;;;;;;18.43;12.53;;;;;;;;;;5070405;28;20028;-38
2023/09/28 00:06:45;;;;;;;27.33;14.50;;;;;;;;;;5050937;28;20028;-38
2023/09/28 00:09:11;;;;;;;19.30;12.65;;;;;;;;;;5073192;28;20117;-38
2023/09/28 00:11:36;;;;;;;20.33;13.05;;;;;;;;;;5065203;28;20398;-38
2023/09/28 00:14:01;;;;;;;21.10;13.07;;;;;;;;;;5069333;28;20020;-38
2023/09/28 00:16:26;;;;;;;21.20;12.17;;;;;;;;;;5062117;28;20036;-39
2023/09/28 00:18:52;;;;;;;18.07;12.53;;;;;;;;;;5067174;28;20340;-38
2023/09/28 00:21:17;;;;;;;22.03;13.37;;;;;;;;;;5072989;28;20020;-38
2023/09/28 00:23:42;;;;;;;19.43;12.10;;;;;;;;;;5071459;28;21242;-38
2023/09/28 00:26:08;;;;;;;24.55;14.07;;;;;;;;;;5072294;28;20351;-38
2023/09/28 00:28:33;;;;;;;17.92;13.02;;;;;;;;;;5074835;28;20063;-38
2023/09/28 00:30:59;;;;;;;26.17;13.77;;;;;;;;;;5065211;28;20020;-39
2023/09/28 00:33:24;;;;;;;20.10;12.70;;;;;;;;;;5058951;28;20016;-38
2023/09/28 00:35:49;;;;;;;21.30;11.80;;;;;;;;;;5067192;28;20525;-38
2023/09/28 00:38:15;;;;;;;22.80;12.40;;;;;;;;;;5067615;28;20286;-38
2023/09/28 00:40:41;;;;;;;21.88;12.52;;;;;;;;;;5071499;28;20032;-39
2023/09/28 00:43:06;;;;;;;20.15;12.82;;;;;;;;;;5068585;28;20038;-38
2023/09/28 00:45:31;;;;;;;26.00;12.70;;;;;;;;;;5072835;28;20498;-38
2023/09/28 00:48:00;;;;;;;21.27;11.17;;;;;;;;;;5071720;28;20028;-38
2023/09/28 00:50:27;;;;;;;17.20;12.38;;;;;;;;;;5068680;28;20262;-39
2023/09/28 00:52:54;;;;;;;29.45;13.13;;;;;;;;;;5070514;28;20525;-39
2023/09/28 00:55:20;;;;;;;19.35;11.90;;;;;;;;;;5072864;28;20115;-38
2023/09/28 00:57:46;;;;;;;21.90;12.35;;;;;;;;;;5072495;28;20447;-38
2023/09/28 01:00:27;;;;;;;21.60;12.23;;;;;;;;;;5068110;28;20031;-38
2023/09/28 01:02:54;;;;;;;23.50;11.85;;;;;;;;;;5066613;28;20024;-38
2023/09/28 01:05:22;;;;;;;17.95;12.68;;;;;;;;;;5072329;28;20047;-38
2023/09/28 01:07:48;;;;;;;19.55;13.35;;;;;;;;;;5068643;28;20031;-38
2023/09/28 01:10:14;;;;;;;20.35;12.38;;;;;;;;;;5064925;28;20012;-38
2023/09/28 01:12:41;;;;;;;22.30;11.95;;;;;;;;;;5076233;28;20028;-38
2023/09/28 01:15:09;;;;;;;20.38;12.95;;;;;;;;;;5067590;28;20034;-38
2023/09/28 01:17:35;;;;;;;19.15;11.95;;;;;;;;;;5072377;28;20559;-38
2023/09/28 01:20:01;;;;;;;17.05;12.00;;;;;;;;;;5064819;28;20016;-38
2023/09/28 01:22:27;;;;;;;20.38;12.18;;;;;;;;;;5071566;28;20085;-38
2023/09/28 01:24:52;;;;;;;19.53;12.13;;;;;;;;;;5069539;28;20028;-38
2023/09/28 01:27:17;;;;;;;17.13;11.03;;;;;;;;;;5068164;28;20037;-38
2023/09/28 01:29:43;;;;;;;15.63;11.32;;;;;;;;;;5069400;28;20069;-38
2023/09/28 01:32:09;;;;;;;18.33;10.93;;;;;;;;;;5067189;28;20017;-38
2023/09/28 01:34:34;;;;;;;17.53;7.77;;;;;;;;;;5071366;28;20111;-39
2023/09/28 01:37:00;;;;;;;16.73;11.30;;;;;;;;;;5063816;28;20290;-38
2023/09/28 01:39:26;;;;;;;19.55;11.60;;;;;;;;;;5069830;28;20081;-38
2023/09/28 01:41:51;;;;;;;19.55;12.13;;;;;;;;;;5069812;28;20123;-38
2023/09/28 01:44:16;;;;;;;20.27;11.10;;;;;;;;;;5071409;28;20135;-38
2023/09/28 01:46:42;;;;;;;18.43;10.87;;;;;;;;;;5067020;28;20625;-38
2023/09/28 01:49:07;;;;;;;17.90;11.60;;;;;;;;;;5070162;28;20278;-38
2023/09/28 01:51:32;;;;;;;17.87;11.20;;;;;;;;;;5062122;28;20048;-38
2023/09/28 01:53:58;;;;;;;16.37;11.53;;;;;;;;;;5072408;28;20271;-38
2023/09/28 01:56:23;;;;;;;21.42;13.52;;;;;;;;;;5066779;28;20776;-38
2023/09/28 01:58:49;;;;;;;18.23;11.02;;;;;;;;;;5065631;28;20040;-38
2023/09/28 02:01:28;;;;;;;16.25;11.27;;;;;;;;;;5072329;28;20461;-38
2023/09/28 02:03:53;;;;;;;15.63;11.02;;;;;;;;;;5053414;28;20036;-38
2023/09/28 02:06:19;;;;;;;17.00;11.23;;;;;;;;;;5073612;28;20024;-38
2023/09/28 02:08:45;;;;;;;16.27;10.77;;;;;;;;;;5070534;28;20051;-39
2023/09/28 02:11:11;;;;;;;18.58;12.75;;;;;;;;;;5070055;28;20288;-38
2023/09/28 02:13:36;;;;;;;10.77;7.10;;;;;;;;;;5070232;28;20024;-38
2023/09/28 02:16:01;;;;;;;17.93;11.70;;;;;;;;;;5072291;28;20106;-38
2023/09/28 02:18:26;;;;;;;21.20;11.53;;;;;;;;;;5072098;28;20673;-38
2023/09/28 02:20:52;;;;;;;17.47;11.30;;;;;;;;;;5065449;28;20368;-38
2023/09/28 02:23:17;;;;;;;19.48;11.38;;;;;;;;;;5073960;28;20031;-38
2023/09/28 02:25:43;;;;;;;15.90;11.07;;;;;;;;;;5074467;28;20031;-38
2023/09/28 02:28:09;;;;;;;21.70;12.43;;;;;;;;;;5057912;28;20488;-39
2023/09/28 02:30:35;;;;;;;16.73;10.93;;;;;;;;;;5070743;28;20099;-38
2023/09/28 02:33:00;;;;;;;18.13;11.25;;;;;;;;;;5065216;28;20034;-38
2023/09/28 02:35:25;;;;;;;22.25;11.45;;;;;;;;;;5076501;28;20095;-38
2023/09/28 02:37:52;;;;;;;20.63;11.73;;;;;;;;;;5073638;28;20052;-38
2023/09/28 02:40:18;;;;;;;19.35;11.85;;;;;;;;;;5074164;28;20043;-38
2023/09/28 02:42:44;;;;;;;20.73;11.95;;;;;;;;;;5068449;28;20117;-38
2023/09/28 02:45:13;;;;;;;20.23;11.80;;;;;;;;;;5074400;28;20020;-39
2023/09/28 02:47:44;;;;;;;17.17;10.57;;;;;;;;;;5074243;28;20036;-39
2023/09/28 02:50:10;;;;;;;;;;;;;;;;;;5060501;28;20042;-38
2023/09/28 02:52:39;;;;;;;18.35;10.70;;;;;;;;;;5075598;28;19947;-38
2023/09/28 02:55:07;;;;;;;15.07;10.68;;;;;;;;;;5059819;28;20474;-38
2023/09/28 02:57:33;;;;;;;19.73;10.77;;;;;;;;;;5068808;28;20036;-38
2023/09/28 02:59:58;;;;;;;21.85;10.52;;;;;;;;;;5066056;28;20024;-38
2023/09/28 03:02:23;;;;;;;15.98;10.70;;;;;;;;;;5071135;28;20032;-38
2023/09/28 03:04:49;;;;;;;17.03;10.33;;;;;;;;;;5069247;28;20074;-38
2023/09/28 03:07:14;;;;;;;16.67;11.63;;;;;;;;;;5072549;28;20765;-38
2023/09/28 03:09:40;;;;;;;17.37;11.00;;;;;;;;;;5071774;28;20109;-38
2023/09/28 03:12:06;;;;;;;17.42;10.07;;;;;;;;;;5070738;28;20664;-38
2023/09/28 03:14:31;;;;;;;18.83;10.32;;;;;;;;;;5073869;28;20050;-39
2023/09/28 03:16:56;;;;;;;19.30;10.03;;;;;;;;;;5069677;28;20028;-39
2023/09/28 03:19:22;;;;;;;23.48;11.60;;;;;;;;;;5069516;28;23249;-39
2023/09/28 03:21:49;;;;;;;16.70;10.27;;;;;;;;;;5073597;28;20040;-38
2023/09/28 03:24:14;;;;;;;18.35;10.55;;;;;;;;;;5072570;28;20027;-39
2023/09/28 03:26:39;;;;;;;15.67;10.27;;;;;;;;;;5062948;28;20032;-38
2023/09/28 03:29:04;;;;;;;16.70;10.47;;;;;;;;;;5067729;28;20286;-39
2023/09/28 03:31:32;;;;;;;18.47;9.73;;;;;;;;;;5069734;28;20270;-39
2023/09/28 03:33:58;;;;;;;18.77;10.48;;;;;;;;;;5073854;28;20450;-39
2023/09/28 03:36:23;;;;;;;14.70;9.57;;;;;;;;;;5068111;28;20538;-39
2023/09/28 03:38:49;;;;;;;15.68;9.48;;;;;;;;;;5070147;28;20896;-38
2023/09/28 03:41:14;;;;;;;19.63;10.80;;;;;;;;;;5067282;28;20029;-39
2023/09/28 03:43:42;;;;;;;19.50;10.27;;;;;;;;;;5070303;28;20032;-38
2023/09/28 03:46:07;;;;;;;16.58;10.57;;;;;;;;;;5070107;28;20410;-39
2023/09/28 03:48:33;;;;;;;15.30;10.40;;;;;;;;;;5068298;28;20033;-39
2023/09/28 03:50:58;;;;;;;19.70;10.32;;;;;;;;;;5067406;28;20039;-38
2023/09/28 03:53:23;;;;;;;18.33;10.57;;;;;;;;;;5065150;28;20016;-39
2023/09/28 03:55:51;;;;;;;10.67;6.47;;;;;;;;;;5075071;28;20393;-38
2023/09/28 03:58:17;;;;;;;16.98;10.07;;;;;;;;;;5068420;28;20035;-39
2023/09/28 04:00:42;;;;;;;20.20;11.50;;;;;;;;;;5077176;28;20020;-39
2023/09/28 04:03:08;;;;;;;15.00;9.48;;;;;;;;;;5067304;28;20354;-39
2023/09/28 04:05:33;;;;;;;15.88;9.68;;;;;;;;;;5069493;28;20530;-38
2023/09/28 04:07:58;;;;;;;20.42;10.18;;;;;;;;;;5065091;28;20080;-38
2023/09/28 04:10:23;;;;;;;14.50;10.07;;;;;;;;;;5070237;28;20028;-38
2023/09/28 04:12:49;;;;;;;14.80;9.13;;;;;;;;;;5063990;28;20081;-38
2023/09/28 04:15:16;;;;;;;17.77;9.82;;;;;;;;;;5069617;28;20031;-39
2023/09/28 04:17:41;;;;;;;20.80;11.85;;;;;;;;;;5059339;28;20033;-39
2023/09/28 04:20:09;;;;;;;19.58;10.77;;;;;;;;;;5074878;28;20032;-39
2023/09/28 04:22:34;;;;;;;16.83;9.48;;;;;;;;;;5068841;28;20028;-39
2023/09/28 04:25:00;;;;;;;16.23;9.23;;;;;;;;;;5067389;28;20054;-39
2023/09/28 04:27:25;;;;;;;19.37;10.90;;;;;;;;;;5067724;28;20032;-39
2023/09/28 04:29:51;;;;;;;20.63;10.73;;;;;;;;;;5075259;28;21249;-39
2023/09/28 04:32:16;;;;;;;18.88;10.65;;;;;;;;;;5075331;28;20434;-38
2023/09/28 04:34:41;;;;;;;22.42;9.90;;;;;;;;;;5075802;28;20031;-39
2023/09/28 04:37:07;;;;;;;16.80;10.33;;;;;;;;;;5072318;28;20103;-39
2023/09/28 04:39:34;;;;;;;18.25;10.95;;;;;;;;;;5077526;28;20020;-38
2023/09/28 04:41:59;;;;;;;12.32;5.50;;;;;;;;;;5076633;28;20079;-39
2023/09/28 04:44:24;;;;;;;17.42;9.43;;;;;;;;;;5071512;28;20111;-38
2023/09/28 04:46:50;;;;;;;15.73;9.13;;;;;;;;;;5074595;28;20046;-38
2023/09/28 04:49:16;;;;;;;19.20;10.10;;;;;;;;;;5074487;28;20028;-38
2023/09/28 04:51:41;;;;;;;20.98;10.02;;;;;;;;;;5071482;28;20028;-39
2023/09/28 04:54:06;;;;;;;20.67;10.17;;;;;;;;;;5075410;28;20028;-39
2023/09/28 04:56:32;;;;;;;19.73;10.30;;;;;;;;;;5072132;28;20025;-38
2023/09/28 04:58:57;;;;;;;18.80;9.77;;;;;;;;;;5076144;28;20298;-39
2023/09/28 05:01:22;;;;;;;17.50;10.77;;;;;;;;;;5071484;28;20028;-38
2023/09/28 05:03:48;;;;;;;14.80;9.57;;;;;;;;;;5074275;28;20040;-39
2023/09/28 05:06:13;;;;;;;21.03;10.50;;;;;;;;;;5077274;28;20103;-38
2023/09/28 05:08:38;;;;;;;16.63;9.23;;;;;;;;;;5071177;28;20865;-38
2023/09/28 05:11:04;;;;;;;14.60;9.90;;;;;;;;;;5077277;28;20265;-38
2023/09/28 05:13:31;;;;;;;17.17;11.27;;;;;;;;;;5078134;28;20052;-39
2023/09/28 05:15:57;;;;;;;27.27;12.25;;;;;;;;;;5074115;28;20020;-39
2023/09/28 05:18:22;;;;;;;17.55;10.00;;;;;;;;;;5077367;28;20562;-39
2023/09/28 05:20:47;;;;;;;17.77;9.35;;;;;;;;;;5057180;28;20024;-39
2023/09/28 05:23:13;;;;;;;18.57;10.30;;;;;;;;;;5075013;28;20187;-38
2023/09/28 05:25:38;;;;;;;17.10;9.63;;;;;;;;;;5078679;28;20280;-38
2023/09/28 05:28:04;;;;;;;19.10;10.47;;;;;;;;;;5066780;28;20061;-38
2023/09/28 05:30:30;;;;;;;12.07;6.75;;;;;;;;;;5077594;28;20357;-39
2023/09/28 05:32:55;;;;;;;17.60;9.00;;;;;;;;;;5077232;28;20386;-39
2023/09/28 05:35:21;;;;;;;16.33;9.75;;;;;;;;;;5076587;28;20028;-39
2023/09/28 05:37:47;;;;;;;17.25;9.48;;;;;;;;;;5072174;28;20047;-38
2023/09/28 05:40:12;;;;;;;21.70;11.18;;;;;;;;;;5074683;28;20021;-39
2023/09/28 05:42:37;;;;;;;16.48;10.40;;;;;;;;;;5076044;28;20115;-39
2023/09/28 05:45:03;;;;;;;16.83;10.07;;;;;;;;;;5065941;28;20099;-38
2023/09/28 05:47:28;;;;;;;13.15;8.60;;;;;;;;;;5070471;28;20262;-39
2023/09/28 05:49:53;;;;;;;19.40;11.80;;;;;;;;;;5072630;28;20153;-38
2023/09/28 05:52:19;;;;;;;24.60;12.47;;;;;;;;;;5070257;28;20287;-39
2023/09/28 05:54:44;;;;;;;23.13;11.32;;;;;;;;;;5068788;28;20025;-38
2023/09/28 05:57:11;;;;;;;18.10;10.40;;;;;;;;;;5060311;28;20059;-38
2023/09/28 05:59:36;;;;;;;17.45;9.90;;;;;;;;;;5072428;28;20055;-39
2023/09/28 06:02:01;;;;;;;18.67;9.10;;;;;;;;;;5070370;28;20402;-39
2023/09/28 06:04:27;;;;;;;17.47;9.97;;;;;;;;;;5067945;28;20040;-39
2023/09/28 06:06:53;;;;;;;16.02;8.68;;;;;;;;;;5067225;28;20278;-39
2023/09/28 06:09:19;;;;;;;15.00;8.55;;;;;;;;;;5068244;28;20093;-39
2023/09/28 06:11:45;;;;;;;14.32;8.88;;;;;;;;;;5058277;28;20081;-38
2023/09/28 06:14:13;;;;;;;16.30;9.90;;;;;;;;;;5064447;28;20028;-38
2023/09/28 06:16:39;;;;;;;18.40;10.40;;;;;;;;;;5067965;28;21310;-39
2023/09/28 06:19:04;;;;;;;19.38;9.13;;;;;;;;;;5071919;28;20486;-38
2023/09/28 06:21:30;;;;;;;18.42;9.55;;;;;;;;;;5070931;28;20043;-39
2023/09/28 06:23:55;;;;;;;16.07;9.43;;;;;;;;;;5071079;28;20020;-39
2023/09/28 06:26:20;;;;;;;17.90;9.32;;;;;;;;;;5068790;28;20274;-39
2023/09/28 06:28:46;;;;;;;15.83;9.53;;;;;;;;;;5072145;28;20032;-38
2023/09/28 06:31:11;;;;;;;13.25;8.43;;;;;;;;;;5074633;28;20275;-39
2023/09/28 06:33:36;;;;;;;18.58;10.00;;;;;;;;;;5073116;28;20040;-39
2023/09/28 06:36:02;;;;;;;42.53;24.53;;;;;;;;;;5070454;28;20482;-39
2023/09/28 06:38:27;;;;;;;38.10;22.77;;;;;;;;;;5057246;28;20412;-39
2023/09/28 06:40:53;;;;;;;24.03;11.27;;;;;;;;;;5063746;28;20107;-39
2023/09/28 06:43:18;;;;;;;20.67;10.57;;;;;;;;;;5069939;28;21565;-39
2023/09/28 06:45:43;;;;;;;15.80;8.88;;;;;;;;;;5069773;28;20028;-39
2023/09/28 06:48:09;;;;;;;16.10;9.52;;;;;;;;;;5068534;28;20077;-39
2023/09/28 06:50:40;;;;;;;14.95;9.05;;;;;;;;;;5069970;28;20061;-39
2023/09/28 06:53:06;;;;;;;14.13;8.23;;;;;;;;;;5071898;28;20028;-39
2023/09/28 06:55:31;;;;;;;20.23;8.27;;;;;;;;;;5076325;28;20032;-39
2023/09/28 06:57:57;;;;;;;12.73;7.73;;;;;;;;;;5074419;28;20038;-39
2023/09/28 07:00:22;;;;;;;14.13;7.93;;;;;;;;;;5075819;28;20278;-39
2023/09/28 07:02:48;;;;;;;16.23;7.40;;;;;;;;;;5069489;28;20562;-39
2023/09/28 07:05:16;;;;;;;15.57;7.60;;;;;;;;;;5072082;28;20270;-39
2023/09/28 07:07:42;;;;;;;13.85;7.25;;;;;;;;;;5073226;28;20020;-39
2023/09/28 07:10:07;;;;;;;15.57;7.28;;;;;;;;;;5054447;28;20031;-39
2023/09/28 07:12:33;;;;;;;13.48;7.05;;;;;;;;;;5077381;28;20050;-42
2023/09/28 07:14:58;;;;;;;15.10;7.50;;;;;;;;;;5075415;28;20024;-39
2023/09/28 07:17:24;;;;;;;17.27;6.83;;;;;;;;;;5072361;28;20024;-39
2023/09/28 07:19:49;;;;;;;11.18;7.25;;;;;;;;;;5073218;28;20317;-39
2023/09/28 07:22:15;;;;;;;13.90;7.60;;;;;;;;;;5079661;28;20021;-39
2023/09/28 07:24:40;;;;;;;11.65;7.68;;;;;;;;;;5079312;28;20029;-39
2023/09/28 07:27:06;;;;;;;15.00;8.37;;;;;;;;;;5071452;28;20040;-39
2023/09/28 07:29:31;;;;;;;17.80;7.10;;;;;;;;;;5078474;28;20335;-38
2023/09/28 07:31:56;;;;;;;14.97;8.80;;;;;;;;;;5078307;28;20277;-38
2023/09/28 07:34:21;;;;;;;15.88;7.68;;;;;;;;;;5075090;28;20119;-39
2023/09/28 07:36:47;;;;;;;8.53;5.23;;;;;;;;;;5073605;28;20021;-39
2023/09/28 07:39:12;;;;;;;18.37;7.17;;;;;;;;;;5073181;28;20310;-39
2023/09/28 07:41:39;;;;;;;14.93;8.20;;;;;;;;;;5074911;28;20036;-39
2023/09/28 07:44:04;;;;;;;15.48;8.07;;;;;;;;;;5076498;28;20016;-38
2023/09/28 07:46:29;;;;;;;11.52;7.13;;;;;;;;;;5077183;28;20038;-39
2023/09/28 07:48:56;;;;;;;13.03;7.47;;;;;;;;;;5073668;28;20162;-38
2023/09/28 07:51:21;;;;;;;12.50;6.90;;;;;;;;;;5076680;28;20806;-38
2023/09/28 07:53:46;;;;;;;15.40;7.43;;;;;;;;;;5078930;28;20024;-38
2023/09/28 07:56:12;;;;;;;13.23;7.33;;;;;;;;;;5075656;28;20402;-38
2023/09/28 07:58:37;;;;;;;13.63;7.53;;;;;;;;;;5074735;28;20031;-38
2023/09/28 08:01:02;;;;;;;13.73;6.93;;;;;;;;;;5074428;28;20391;-39
2023/09/28 08:03:27;;;;;;;15.27;7.53;;;;;;;;;;5076446;28;20267;-39
2023/09/28 08:05:54;;;;;;;8.83;7.00;;;;;;;;;;5078137;28;20278;-38
2023/09/28 08:08:19;;;;;;;14.90;7.30;;;;;;;;;;5076502;28;20375;-39
2023/09/28 08:10:45;;;;;;;20.10;10.25;;;;;;;;;;5075497;28;20024;-39
2023/09/28 08:13:10;;;;;;;12.18;7.25;;;;;;;;;;5071505;28;20534;-39
2023/09/28 08:15:35;;;;;;;17.63;8.02;;;;;;;;;;5074190;28;20024;-39
2023/09/28 08:18:01;;;;;;;12.47;6.73;;;;;;;;;;5077040;28;20094;-44
2023/09/28 08:20:26;;;;;;;20.00;8.77;;;;;;;;;;5079242;28;20265;-38
2023/09/28 08:22:52;;;;;;;8.60;4.75;;;;;;;;;;5073581;28;21157;-39
2023/09/28 08:25:18;;;;;;;13.10;8.43;;;;;;;;;;5077558;28;20415;-39
2023/09/28 08:27:43;;;;;;;15.02;8.38;;;;;;;;;;5073793;28;20024;-39
2023/09/28 08:30:08;;;;;;;13.25;7.72;;;;;;;;;;5076492;28;20032;-39
2023/09/28 08:32:34;;;;;;;14.25;8.60;;;;;;;;;;5072367;28;20024;-38
2023/09/28 08:34:59;;;;;;;13.43;7.38;;;;;;;;;;5075261;28;20023;-39
2023/09/28 08:37:24;;;;;;;16.75;7.63;;;;;;;;;;5075312;28;20026;-38
2023/09/28 08:39:50;;;;;;;15.17;7.90;;;;;;;;;;5074024;28;20028;-39
2023/09/28 08:42:19;;;;;;;12.38;7.40;;;;;;;;;;5072996;28;21671;-39
2023/09/28 08:44:45;;;;;;;12.05;7.53;;;;;;;;;;5074269;28;20390;-39
2023/09/28 08:47:16;;;;;;;19.65;8.73;;;;;;;;;;5072698;28;20036;-39
2023/09/28 08:49:47;;;;;;;9.30;4.57;;;;;;;;;;5075036;28;20023;-39
2023/09/28 08:52:14;;;;;;;18.35;9.13;;;;;;;;;;5072579;28;20025;-39
2023/09/28 08:54:39;;;;;;;14.10;7.90;;;;;;;;;;5077201;28;20023;-39
2023/09/28 08:57:05;;;;;;;17.17;9.00;;;;;;;;;;5072766;28;20024;-39
2023/09/28 08:59:30;;;;;;;14.05;7.47;;;;;;;;;;5077451;28;20028;-39
2023/09/28 09:01:57;;;;;;;14.88;8.38;;;;;;;;;;5066689;28;20381;-39
2023/09/28 09:04:22;;;;;;;18.23;8.10;;;;;;;;;;5074041;28;20067;-37
2023/09/28 09:06:48;;;;;;;12.40;7.38;;;;;;;;;;5074935;28;20427;-37
2023/09/28 09:09:16;;;;;;;17.02;8.48;;;;;;;;;;5075451;28;20100;-37
2023/09/28 09:11:50;;;;;;;16.75;8.27;;;;;;;;;;5072464;28;20735;-37
2023/09/28 09:14:15;;;;;;;12.63;8.00;;;;;;;;;;5070356;28;20049;-37
2023/09/28 09:16:41;;;;;;;17.77;8.73;;;;;;;;;;5070737;28;20032;-37
2023/09/28 09:19:07;;;;;;;14.20;8.75;;;;;;;;;;5072260;28;20297;-39
2023/09/28 09:21:40;;;;;;;16.40;8.48;;;;;;;;;;5069976;28;20055;-39
2023/09/28 09:24:10;;;;;;;14.02;8.45;;;;;;;;;;5074331;28;20027;-39
2023/09/28 09:26:42;;;;;;;19.45;8.75;;;;;;;;;;5068470;28;20075;-39
2023/09/28 09:29:08;;;;;;;15.90;8.88;;;;;;;;;;5056349;28;20539;-39
2023/09/28 09:31:41;;;;;;;9.98;7.53;;;;;;;;;;5072587;28;20045;-39
2023/09/28 09:34:11;;;;;;;22.95;9.15;;;;;;;;;;5075141;28;21101;-39
2023/09/28 09:36:37;;;;;;;15.27;8.07;;;;;;;;;;5074810;28;20494;-39
2023/09/28 09:39:02;;;;;;;14.90;8.23;;;;;;;;;;5072449;28;20035;-39
2023/09/28 09:41:28;;;;;;;14.23;8.32;;;;;;;;;;5078122;28;20032;-39
2023/09/28 09:43:54;;;;;;;15.68;8.43;;;;;;;;;;5075496;28;20024;-39
2023/09/28 09:46:19;;;;;;;15.35;7.40;;;;;;;;;;5075886;28;20028;-39
2023/09/28 09:48:44;;;;;;;20.30;8.43;;;;;;;;;;5073149;28;20043;-39
2023/09/28 09:51:12;;;;;;;16.90;8.43;;;;;;;;;;5078321;28;20271;-39
2023/09/28 09:53:41;;;;;;;15.18;8.32;;;;;;;;;;5074114;28;20269;-39
2023/09/28 09:56:07;;;;;;;14.80;8.52;;;;;;;;;;5071539;28;20030;-39
2023/09/28 09:58:37;;;;;;;13.45;8.90;;;;;;;;;;5072936;28;20028;-39
2023/09/28 10:01:04;;;;;;;16.52;7.63;;;;;;;;;;5070115;28;20031;-39
2023/09/28 10:03:30;;;;;;;18.75;9.98;;;;;;;;;;5077061;28;20032;-39
2023/09/28 10:05:56;;;;;;;10.30;6.03;;;;;;;;;;5070349;28;20016;-39
2023/09/28 10:08:22;;;;;;;13.38;8.45;;;;;;;;;;5077180;28;20445;-39
2023/09/28 10:10:48;;;;;;;12.70;8.15;;;;;;;;;;5071608;28;20123;-39
2023/09/28 10:13:14;;;;;;;13.70;7.63;;;;;;;;;;5076934;28;20112;-39
2023/09/28 10:15:39;;;;;;;13.45;7.78;;;;;;;;;;5074275;28;20372;-39
2023/09/28 10:18:06;;;;;;;15.63;8.68;;;;;;;;;;5072824;28;20039;-37
2023/09/28 10:20:32;;;;;;;15.15;9.18;;;;;;;;;;5072202;28;20052;-37
2023/09/28 10:23:10;;;;;;;13.02;7.78;;;;;;;;;;5079160;28;20031;-37
2023/09/28 10:25:52;;;;;;;14.93;7.82;;;;;;;;;;5076798;28;20015;-38
2023/09/28 10:28:17;;;;;;;16.23;7.40;;;;;;;;;;5078948;28;20020;-37
2023/09/28 10:30:42;;;;;;;10.43;6.77;;;;;;;;;;5080364;28;20459;-37
2023/09/28 10:33:12;;;;;;;16.87;7.07;;;;;;;;;;5076178;28;20279;-37
2023/09/28 10:35:37;;;;;;;13.85;8.25;;;;;;;;;;5077041;28;20053;-37
2023/09/28 10:38:18;;;;;;;12.77;8.30;;;;;;;;;;5077198;28;20101;-38
2023/09/28 10:41:03;;;;;;;11.68;7.60;;;;;;;;;;5073703;28;20071;-37
2023/09/28 10:43:34;;;;;;;15.05;7.60;;;;;;;;;;5070604;28;20123;-37
2023/09/28 10:46:03;;;;;;;11.13;7.15;;;;;;;;;;5078926;28;20020;-37
2023/09/28 10:48:37;;;;;;;10.27;7.28;;;;;;;;;;5078211;28;20131;-37
2023/09/28 10:51:07;;;;;;;10.80;7.38;;;;;;;;;;5078702;28;20016;-37
2023/09/28 10:53:33;;;;;;;11.50;6.47;;;;;;;;;;5077546;28;20043;-37
2023/09/28 10:55:59;;;;;;;12.68;6.95;;;;;;;;;;5079043;28;20016;-37
2023/09/28 10:58:24;;;;;;;12.90;6.85;;;;;;;;;;5079006;28;20024;-37
2023/09/28 11:00:49;;;;;;;13.57;6.97;;;;;;;;;;5076233;28;20510;-37
2023/09/28 11:03:16;;;;;;;12.93;7.13;;;;;;;;;;5071100;28;20035;-37
2023/09/28 11:05:42;;;;;;;16.65;7.00;;;;;;;;;;5075592;28;20278;-38
2023/09/28 11:08:08;;;;;;;8.45;6.47;;;;;;;;;;5072121;28;20376;-37
2023/09/28 11:10:33;;;;;;;9.43;6.95;;;;;;;;;;5071611;28;20470;-37
2023/09/28 11:12:59;;;;;;;13.47;7.00;;;;;;;;;;5073564;28;20031;-37
2023/09/28 11:15:24;;;;;;;14.37;7.13;;;;;;;;;;5077502;28;20274;-37
2023/09/28 11:17:50;;;;;;;10.60;6.90;;;;;;;;;;5074290;28;20294;-37
2023/09/28 11:20:15;;;;;;;15.85;7.22;;;;;;;;;;5079123;28;20040;-37
2023/09/28 11:22:40;;;;;;;14.80;8.40;;;;;;;;;;5076584;28;20032;-37
2023/09/28 11:25:06;;;;;;;11.00;7.47;;;;;;;;;;5074937;28;20265;-37
2023/09/28 11:27:31;;;;;;;10.65;6.75;;;;;;;;;;5079890;28;20039;-37
2023/09/28 11:29:57;;;;;;;6.65;4.90;;;;;;;;;;5076933;28;20087;-37
2023/09/28 11:32:23;;;;;;;9.38;6.80;;;;;;;;;;5080382;28;20039;-37
2023/09/28 11:34:48;;;;;;;12.77;6.40;;;;;;;;;;5071767;28;20102;-37
2023/09/28 11:37:16;;;;;;;10.67;5.57;;;;;;;;;;5073932;28;20352;-37
2023/09/28 11:39:42;;;;;;;12.57;6.55;;;;;;;;;;5075760;28;20024;-37
2023/09/28 11:42:07;;;;;;;12.73;7.05;;;;;;;;;;5077261;28;20027;-37
2023/09/28 11:44:33;;;;;;;11.35;6.75;;;;;;;;;;5073544;28;20124;-38
2023/09/28 11:46:58;;;;;;;14.83;7.40;;;;;;;;;;5077911;28;20505;-38
2023/09/28 11:49:24;;;;;;;13.88;7.35;;;;;;;;;;5075619;28;20020;-37
2023/09/28 11:51:52;;;;;;;13.68;6.90;;;;;;;;;;5074154;28;20074;-37
2023/09/28 11:54:18;;;;;;;14.02;7.28;;;;;;;;;;5073651;28;20021;-37
2023/09/28 11:56:44;;;;;;;9.45;6.75;;;;;;;;;;5077632;28;20050;-38
2023/09/28 11:59:09;;;;;;;14.85;7.30;;;;;;;;;;5076042;28;20389;-37
2023/09/28 12:01:35;;;;;;;10.18;6.30;;;;;;;;;;5070759;28;20039;-38
2023/09/28 12:04:00;;;;;;;14.88;6.95;;;;;;;;;;5076311;28;20021;-37
2023/09/28 12:06:26;;;;;;;10.13;7.70;;;;;;;;;;5080568;28;20059;-37
2023/09/28 12:08:51;;;;;;;14.38;6.65;;;;;;;;;;5077630;28;20402;-37
2023/09/28 12:11:16;;;;;;;15.57;7.50;;;;;;;;;;5079578;28;20020;-37
2023/09/28 12:13:42;;;;;;;11.43;6.90;;;;;;;;;;5071289;28;20097;-38
2023/09/28 12:16:08;;;;;;;13.27;7.32;;;;;;;;;;5081914;28;20068;-37
2023/09/28 12:18:33;;;;;;;9.73;6.40;;;;;;;;;;5078640;28;20115;-38
2023/09/28 12:20:59;;;;;;;14.30;6.43;;;;;;;;;;5073014;28;20095;-37
2023/09/28 12:23:25;;;;;;;12.52;6.82;;;;;;;;;;5075046;28;20039;-37
2023/09/28 12:25:50;;;;;;;10.85;6.93;;;;;;;;;;5075532;28;21211;-37
2023/09/28 12:28:16;;;;;;;17.70;10.38;;;;;;;;;;5075258;28;20213;-38
2023/09/28 12:30:42;;;;;;;11.88;7.18;;;;;;;;;;5079899;28;20461;-37
2023/09/28 12:33:10;;;;;;;12.23;7.23;;;;;;;;;;5077274;28;20395;-37
2023/09/28 12:35:36;;;;;;;13.48;6.40;;;;;;;;;;5078655;28;20295;-37
2023/09/28 12:38:04;;;;;;;11.23;6.90;;;;;;;;;;5077933;28;20023;-38
2023/09/28 12:40:33;;;;;;;15.57;6.95;;;;;;;;;;5069366;28;20028;-37
2023/09/28 12:43:04;;;;;;;12.02;6.80;;;;;;;;;;5078421;28;20031;-37
2023/09/28 12:45:35;;;;;;;8.10;5.60;;;;;;;;;;5074197;28;20440;-37
2023/09/28 12:48:02;;;;;;;10.43;5.90;;;;;;;;;;5077420;28;20045;-41
2023/09/28 12:50:27;;;;;;;10.13;5.63;;;;;;;;;;5074971;28;20071;-37
2023/09/28 12:52:53;;;;;;;14.15;6.45;;;;;;;;;;5076137;28;20059;-37
2023/09/28 12:55:19;;;;;;;10.38;5.50;;;;;;;;;;5073623;28;21224;-38
2023/09/28 12:57:44;;;;;;;10.52;5.95;;;;;;;;;;5073914;28;20028;-37
2023/09/28 13:00:10;;;;;;;7.82;4.90;;;;;;;;;;5069509;28;20048;-38
2023/09/28 13:02:36;;;;;;;8.32;5.40;;;;;;;;;;5076416;28;20013;-38
2023/09/28 13:05:01;;;;;;;8.98;5.03;;;;;;;;;;5061026;28;20040;-38
2023/09/28 13:07:27;;;;;;;12.45;5.35;;;;;;;;;;5071688;28;20086;-37
2023/09/28 13:09:52;;;;;;;14.45;5.85;;;;;;;;;;5075916;28;20020;-37
2023/09/28 13:12:17;;;;;;;14.53;5.70;;;;;;;;;;5072485;28;20032;-38
2023/09/28 13:14:43;;;;;;;13.40;5.57;;;;;;;;;;5064921;28;20029;-37
2023/09/28 13:17:08;;;;;;;12.23;5.88;;;;;;;;;;5073007;28;20079;-37
2023/09/28 13:19:33;;;;;;;8.20;4.88;;;;;;;;;;5076799;28;20043;-38
2023/09/28 13:21:59;;;;;;;9.47;5.20;;;;;;;;;;5074014;28;20084;-37
2023/09/28 13:24:25;;;;;;;10.32;5.65;;;;;;;;;;5068491;28;20036;-38
2023/09/28 13:26:50;;;;;;;18.20;5.90;;;;;;;;;;5074934;28;20028;-38
2023/09/28 13:29:21;;;;;;;10.48;5.45;;;;;;;;;;5074301;28;20024;-37
2023/09/28 13:31:50;;;;;;;8.95;4.95;;;;;;;;;;5074058;28;20679;-38
2023/09/28 13:34:15;;;;;;;8.95;5.20;;;;;;;;;;5076082;28;20471;-37
2023/09/28 13:36:41;;;;;;;10.02;5.25;;;;;;;;;;5077124;28;20028;-38
2023/09/28 13:39:13;;;;;;;12.00;5.93;;;;;;;;;;5071269;28;20142;-37
2023/09/28 13:41:39;;;;;;;7.97;5.20;;;;;;;;;;5073401;28;20029;-37
2023/09/28 13:44:04;;;;;;;10.23;4.60;;;;;;;;;;5075965;28;20024;-37
2023/09/28 13:46:29;;;;;;;12.40;4.63;;;;;;;;;;5053786;28;20032;-37
2023/09/28 13:48:55;;;;;;;10.87;5.13;;;;;;;;;;5061134;28;20021;-38
2023/09/28 13:51:20;;;;;;;12.13;5.17;;;;;;;;;;5070204;28;20030;-38
2023/09/28 13:53:46;;;;;;;9.57;4.57;;;;;;;;;;5070328;28;20323;-37
2023/09/28 13:56:11;;;;;;;13.80;4.53;;;;;;;;;;5070640;28;20568;-38
2023/09/28 13:58:38;;;;;;;4.20;2.67;;;;;;;;;;5077370;28;20056;-37
2023/09/28 14:01:07;;;;;;;10.50;5.32;;;;;;;;;;5058594;28;20028;-38
2023/09/28 14:03:32;;;;;;;8.07;4.80;;;;;;;;;;5072768;28;20089;-37
2023/09/28 14:05:58;;;;;;;7.53;4.27;;;;;;;;;;5075295;28;20016;-38
2023/09/28 14:08:24;;;;;;;9.52;5.05;;;;;;;;;;5076287;28;20021;-37
2023/09/28 14:10:50;;;;;;;8.82;5.07;;;;;;;;;;5067297;28;20024;-38
2023/09/28 14:13:15;;;;;;;9.90;5.20;;;;;;;;;;5076764;28;20073;-37
2023/09/28 14:15:40;;;;;;;9.10;5.68;;;;;;;;;;5076866;28;20020;-37
2023/09/28 14:18:06;;;;;;;8.70;5.40;;;;;;;;;;5076229;28;20020;-38
2023/09/28 14:20:35;;;;;;;9.80;5.65;;;;;;;;;;5061262;28;20705;-37